WetterOnline ( http://www.wetteronline.de )

Wetter aktuell Giesensdorf

Aktuelles Wetter: Lübeck/Blankensee (15m)

6-stündlich | Neueste Meldungen
Ortszeit Temperatur Wetter
Mi, 18.07. 8:00 17.1° C wolkig
Mi, 18.07. 2:00 18.5° C bewölkt
Di, 17.07. 20:00 27.0° C fast wolkenlos
Di, 17.07. 14:00 27.8° C leicht bewölkt
Di, 17.07. 8:00 18.6° C wolkenlos
Di, 17.07. 2:00 14.3° C wolkenlos
Mo, 16.07. 20:00 24.5° C wolkenlos
Mo, 16.07. 14:00 25.4° C fast wolkenlos
Ortszeit Temperatur Wetter
Mi, 18.07. 14:00 24.6° C bedeckt
Mi, 18.07. 13:50 24° C leicht bewölkt
Mi, 18.07. 13:40 24.1° C bedeckt
Mi, 18.07. 13:30 23.7° C bedeckt
Mi, 18.07. 13:20 23.7° C bedeckt
Mi, 18.07. 13:10 24.1° C bedeckt
Mi, 18.07. 13:00 22.8° C wolkig
Mi, 18.07. 12:30 21.8° C bewölkt
Mi, 18.07. 12:00 21.9° C bewölkt
Mi, 18.07. 11:30 22.3° C wolkig
Mi, 18.07. 11:00 20.9° C bewölkt
Mi, 18.07. 10:30 20.3° C bewölkt
Ortszeit Relative Feuchte Sichtweite
Mi, 18.07. 8:00 84% 10 km
Mi, 18.07. 2:00 76% 19 km
Di, 17.07. 20:00 43% 29 km
Di, 17.07. 14:00 37% 27 km
Di, 17.07. 8:00 79% 11 km
Di, 17.07. 2:00 97% 9 km
Mo, 16.07. 20:00 48% 26 km
Mo, 16.07. 14:00 36% 16 km
Ortszeit Relative Feuchte Sichtweite
Mi, 18.07. 14:00 47% 23 km
Mi, 18.07. 13:50 50% >10 km
Mi, 18.07. 13:40 50% -
Mi, 18.07. 13:30 50% 18 km
Mi, 18.07. 13:20 50% -
Mi, 18.07. 13:10 48% -
Mi, 18.07. 13:00 53% 19 km
Mi, 18.07. 12:30 53% 21 km
Mi, 18.07. 12:00 55% 17 km
Mi, 18.07. 11:30 57% 20 km
Mi, 18.07. 11:00 64% 19 km
Mi, 18.07. 10:30 68% 16 km
Ortszeit Niederschlagsmenge Niederschlagsart
Mi, 18.07. 8:00 0.0 l/m2 in 12 Std. -
Mi, 18.07. 2:00 0.0 l/m2 in 6 Std. -
Di, 17.07. 20:00 0.0 l/m2 in 12 Std. -
Di, 17.07. 14:00 0.0 l/m2 in 6 Std. -
Di, 17.07. 8:00 0.0 l/m2 in 12 Std. -
Di, 17.07. 2:00 0.0 l/m2 in 6 Std. -
Mo, 16.07. 20:00 0.0 l/m2 in 12 Std. -
Mo, 16.07. 14:00 0.0 l/m2 in 6 Std. -
Ortszeit Niederschlagsmenge Niederschlagsart
Mi, 18.07. 14:00 0.0 l/m2 in 1 Std. -
Mi, 18.07. 13:50 keine Meldung -
Mi, 18.07. 13:40 keine Meldung -
Mi, 18.07. 13:30 0.0 l/m2 in 1 Std. -
Mi, 18.07. 13:20 keine Meldung -
Mi, 18.07. 13:10 keine Meldung -
Mi, 18.07. 13:00 0.0 l/m2 in 1 Std. -
Mi, 18.07. 12:30 0.0 l/m2 in 1 Std. -
Mi, 18.07. 12:00 0.0 l/m2 in 1 Std. -
Mi, 18.07. 11:30 0.0 l/m2 in 1 Std. -
Mi, 18.07. 11:00 0.0 l/m2 in 1 Std. -
Mi, 18.07. 10:30 0.0 l/m2 in 1 Std. -
Ortszeit Stärke Spitze Richtung
km/h Bft. km/h Grad Sektor
Mi, 18.07. 8:00 9 2 20 270° W
Mi, 18.07. 2:00 11 2 25 290° W
Di, 17.07. 20:00 9 2 31 30° NO
Di, 17.07. 14:00 4 1 18 360° N
Di, 17.07. 8:00 4 1 7 270° W
Di, 17.07. 2:00 0 0 22 - -
Mo, 16.07. 20:00 13 3 30 40° NO
Mo, 16.07. 14:00 18 3 25 20° N
Ortszeit Stärke Spitze Richtung
km/h Bft. km/h Grad Sektor
Mi, 18.07. 14:00 18 3 29 280° W
Mi, 18.07. 13:50 11 2 - 250° W
Mi, 18.07. 13:40 14 3 - 300° NW
Mi, 18.07. 13:30 17 3 30 290° W
Mi, 18.07. 13:20 17 3 - 290° W
Mi, 18.07. 13:10 14 3 - 300° NW
Mi, 18.07. 13:00 18 3 36 270° W
Mi, 18.07. 12:30 19 3 35 300° NW
Mi, 18.07. 12:00 18 3 36 290° W
Mi, 18.07. 11:30 18 3 32 290° W
Mi, 18.07. 11:00 17 3 30 290° W
Mi, 18.07. 10:30 17 3 30 300° NW
Ortszeit Untergrenze Bedeckung Gattung
total tief tief mittel hoch
Mi, 18.07. 8:00 8700 m 8/8 0/8 - - -
Mi, 18.07. 2:00 3600 m 8/8 4/8 - - -
Di, 17.07. 20:00 10500 m 2/8 0/8 - - -
Di, 17.07. 14:00 1800 m 2/8 2/8 - - -
Di, 17.07. 8:00 - 0/8 0/8 - - -
Di, 17.07. 2:00 - 0/8 0/8 - - -
Mo, 16.07. 20:00 - 0/8 0/8 - - -
Mo, 16.07. 14:00 9000 m 1/8 0/8 - - -
Ortszeit Bedeckungsgrad in Achtel und Wolkenuntergrenze
Mi, 18.07. 14:00 8
Mi, 18.07. 13:50 3-4(1350m)
Mi, 18.07. 13:40 9 9 9
Mi, 18.07. 13:30 9 9 9
Mi, 18.07. 13:20 9 9 9
Mi, 18.07. 13:10 9 9 9
Mi, 18.07. 13:00 6(1290m) 7(1470m)
Mi, 18.07. 12:30 7(1230m) 9 9
Mi, 18.07. 12:00 5(1110m) 7(1380m)
Mi, 18.07. 11:30 6(1140m) 7(1260m)
Mi, 18.07. 11:00 1(720m) 3(870m) 7(1080m)
Mi, 18.07. 10:30 5(660m) 6(810m) 7(960m)
Ortszeit Luftdruck NN (hPa) Tendenz (hPa in 3 Std.)
Mi, 18.07. 8:00 1016 + 0,9
Mi, 18.07. 2:00 1015 + 1,2
Di, 17.07. 20:00 1012 + 0,2
Di, 17.07. 14:00 1013 - 0,7
Di, 17.07. 8:00 1013 + 0,2
Di, 17.07. 2:00 1014 + 0,1
Mo, 16.07. 20:00 1013 - 0,5
Mo, 16.07. 14:00 1015 - 0,6
Ortszeit Luftdruck NN (hPa) Tendenz (hPa in 3 Std.)
Mi, 18.07. 14:00 1016 0,0
Mi, 18.07. 13:50 1016 keine Meldung
Mi, 18.07. 13:40 1016 keine Meldung
Mi, 18.07. 13:30 1016 + 0,2
Mi, 18.07. 13:20 1016 keine Meldung
Mi, 18.07. 13:10 1016 keine Meldung
Mi, 18.07. 13:00 1016 + 0,2
Mi, 18.07. 12:30 1016 + 0,1
Mi, 18.07. 12:00 1016 + 0,1
Mi, 18.07. 11:30 1016 + 0,2
Mi, 18.07. 11:00 1016 + 0,3
Mi, 18.07. 10:30 1016 + 0,3
Ortszeit Schneehöhe (cm)
Mi, 18.07. 8:00 -
Mi, 18.07. 2:00 -
Di, 17.07. 20:00 -
Di, 17.07. 14:00 -
Di, 17.07. 8:00 -
Di, 17.07. 2:00 -
Mo, 16.07. 20:00 -
Mo, 16.07. 14:00 -
Ortszeit Schneehöhe (cm)
Mi, 18.07. 14:00 -
Mi, 18.07. 13:50 -
Mi, 18.07. 13:40 -
Mi, 18.07. 13:30 -
Mi, 18.07. 13:20 -
Mi, 18.07. 13:10 -
Mi, 18.07. 13:00 -
Mi, 18.07. 12:30 -
Mi, 18.07. 12:00 -
Mi, 18.07. 11:30 -
Mi, 18.07. 11:00 -
Mi, 18.07. 10:30 -
Link zu dieser Seite / Seite empfehlen

Das Wetter in ...